createdAt,value
2023-01-19T00:15:53.510Z,1.69
2023-01-19T00:35:53.438Z,1.74
2023-01-19T00:55:53.423Z,1.84
2023-01-19T01:15:53.406Z,1.93
2023-01-19T01:35:53.413Z,2.07
2023-01-19T01:55:53.329Z,2.05
2023-01-19T02:15:53.326Z,2.05
2023-01-19T02:35:53.291Z,2.04
2023-01-19T02:55:53.272Z,1.99
2023-01-19T03:15:53.316Z,2.04
2023-01-19T03:35:53.261Z,2.03
2023-01-19T03:55:53.193Z,2.06
2023-01-19T04:15:53.178Z,2.22
2023-01-19T04:35:54.329Z,1.42
2023-01-19T04:55:53.161Z,0.67
2023-01-19T05:15:53.149Z,0.57
2023-01-19T05:35:53.079Z,0.58
2023-01-19T05:55:53.065Z,0.43
2023-01-19T06:15:53.028Z,0.4
2023-01-19T06:35:53.023Z,0.4
2023-01-19T06:55:53.030Z,0.36
2023-01-19T07:15:52.968Z,0.41
2023-01-19T07:35:52.958Z,0.55
2023-01-19T07:55:52.947Z,0.73
2023-01-19T08:15:53.034Z,0.97
2023-01-19T08:35:52.890Z,1.21
2023-01-19T08:55:52.860Z,1.28
2023-01-19T09:15:52.877Z,1.44
2023-01-19T09:35:52.828Z,1.61
2023-01-19T09:55:52.794Z,1.7
2023-01-19T10:15:52.797Z,1.75
2023-01-19T10:35:52.826Z,1.83
2023-01-19T11:15:52.694Z,2.05
2023-01-19T11:35:52.675Z,2.79
2023-01-19T11:55:52.676Z,2.57
2023-01-19T12:15:52.649Z,2.39
2023-01-19T12:35:52.662Z,2.51
2023-01-19T12:55:52.590Z,2.57
2023-01-19T13:15:54.813Z,2.57
2023-01-19T13:35:52.516Z,2.61
2023-01-19T13:55:52.492Z,2.81
2023-01-19T14:15:52.519Z,2.89
2023-01-19T14:35:52.484Z,2.72
2023-01-19T14:55:52.436Z,2.71
2023-01-19T15:15:52.452Z,2.71
2023-01-19T15:35:52.374Z,2.56
2023-01-19T15:55:52.374Z,2.2
2023-01-19T16:15:52.314Z,1.88
2023-01-19T16:55:52.334Z,1.76
2023-01-19T17:35:52.230Z,1.5
2023-01-19T17:55:52.188Z,1.39
2023-01-19T18:15:52.269Z,1.38
2023-01-19T18:35:52.171Z,1.14
2023-01-19T18:55:52.308Z,1.32
2023-01-19T19:15:52.179Z,1.41
2023-01-19T19:55:52.054Z,1.64
2023-01-19T20:15:52.108Z,1.73
2023-01-19T20:35:52.040Z,1.8
2023-01-19T20:55:51.998Z,1.72
2023-01-19T21:15:51.966Z,1.7
2023-01-19T21:35:51.936Z,1.75
2023-01-19T21:55:51.956Z,1.84
2023-01-19T22:15:51.896Z,1.85
2023-01-19T22:55:51.859Z,1.9
2023-01-19T23:15:51.884Z,1.8
2023-01-19T23:55:51.773Z,1.72
